sensor_id;sensor_type;location;lat;lon;timestamp;pressure;altitude;pressure_sealevel;temperature;humidity
61573;BME280;47465;43.094;12.434;2022-12-29T00:01:34;99570.31;;;7.32;100.00
61573;BME280;47465;43.094;12.434;2022-12-29T00:04:02;99584.44;;;7.30;100.00
61573;BME280;47465;43.094;12.434;2022-12-29T00:06:28;99587.09;;;7.27;100.00
61573;BME280;47465;43.094;12.434;2022-12-29T00:08:54;99587.06;;;7.34;100.00
61573;BME280;47465;43.094;12.434;2022-12-29T00:11:22;99594.13;;;7.40;100.00
61573;BME280;47465;43.094;12.434;2022-12-29T00:13:49;99579.06;;;7.70;100.00
61573;BME280;47465;43.094;12.434;2022-12-29T00:16:48;99589.59;;;8.00;100.00
61573;BME280;47465;43.094;12.434;2022-12-29T00:19:14;99600.09;;;8.20;100.00
61573;BME280;47465;43.094;12.434;2022-12-29T00:22:14;99600.06;;;8.25;100.00
61573;BME280;47465;43.094;12.434;2022-12-29T00:25:15;99591.16;;;8.40;100.00
61573;BME280;47465;43.094;12.434;2022-12-29T00:28:15;99587.63;;;8.46;100.00
61573;BME280;47465;43.094;12.434;2022-12-29T00:31:15;99588.50;;;8.52;100.00
61573;BME280;47465;43.094;12.434;2022-12-29T00:34:01;99594.63;;;8.62;100.00
61573;BME280;47465;43.094;12.434;2022-12-29T00:37:00;99590.19;;;8.62;100.00
61573;BME280;47465;43.094;12.434;2022-12-29T00:39:26;99587.56;;;8.61;100.00
61573;BME280;47465;43.094;12.434;2022-12-29T00:42:26;99591.03;;;8.72;100.00
61573;BME280;47465;43.094;12.434;2022-12-29T00:45:26;99597.16;;;8.80;100.00
61573;BME280;47465;43.094;12.434;2022-12-29T00:47:52;99579.50;;;8.73;100.00
61573;BME280;47465;43.094;12.434;2022-12-29T00:50:18;99585.69;;;8.78;100.00
61573;BME280;47465;43.094;12.434;2022-12-29T00:52:44;99583.91;;;8.76;100.00
61573;BME280;47465;43.094;12.434;2022-12-29T00:55:10;99554.84;;;8.62;100.00
61573;BME280;47465;43.094;12.434;2022-12-29T00:57:35;99561.94;;;8.61;100.00
61573;BME280;47465;43.094;12.434;2022-12-29T01:00:01;99585.69;;;8.77;100.00
61573;BME280;47465;43.094;12.434;2022-12-29T01:02:29;99570.72;;;8.70;100.00
61573;BME280;47465;43.094;12.434;2022-12-29T01:04:55;99579.50;;;8.72;100.00
61573;BME280;47465;43.094;12.434;2022-12-29T01:07:21;99581.25;;;8.80;100.00
61573;BME280;47465;43.094;12.434;2022-12-29T01:09:47;99583.00;;;8.83;100.00
61573;BME280;47465;43.094;12.434;2022-12-29T01:12:46;99585.66;;;8.81;100.00
61573;BME280;47465;43.094;12.434;2022-12-29T01:15:14;99575.13;;;8.72;100.00
61573;BME280;47465;43.094;12.434;2022-12-29T01:17:40;99557.53;;;8.59;100.00
61573;BME280;47465;43.094;12.434;2022-12-29T01:20:06;99584.88;;;8.62;100.00
61573;BME280;47465;43.094;12.434;2022-12-29T01:22:32;99569.97;;;8.46;100.00
61573;BME280;47465;43.094;12.434;2022-12-29T01:24:58;99590.19;;;8.62;100.00
61573;BME280;47465;43.094;12.434;2022-12-29T01:27:24;99580.47;;;8.61;100.00
61573;BME280;47465;43.094;12.434;2022-12-29T01:29:51;99558.47;;;8.47;100.00
61573;BME280;47465;43.094;12.434;2022-12-29T01:32:17;99588.41;;;8.66;100.00
61573;BME280;47465;43.094;12.434;2022-12-29T01:34:43;99553.19;;;8.39;100.00
61573;BME280;47465;43.094;12.434;2022-12-29T01:37:09;99565.56;;;8.36;100.00
61573;BME280;47465;43.094;12.434;2022-12-29T01:39:35;99571.75;;;8.30;100.00
61573;BME280;47465;43.094;12.434;2022-12-29T01:42:01;99562.94;;;8.28;100.00
61573;BME280;47465;43.094;12.434;2022-12-29T01:44:51;99595.59;;;8.38;100.00
61573;BME280;47465;43.094;12.434;2022-12-29T01:47:23;99593.88;;;8.28;100.00
61573;BME280;47465;43.094;12.434;2022-12-29T01:49:53;99563.09;;;7.99;100.00
61573;BME280;47465;43.094;12.434;2022-12-29T01:52:20;99586.00;;;8.11;100.00
61573;BME280;47465;43.094;12.434;2022-12-29T01:54:49;99546.34;;;7.91;100.00
61573;BME280;47465;43.094;12.434;2022-12-29T01:57:21;99558.66;;;7.98;100.00
61573;BME280;47465;43.094;12.434;2022-12-29T01:59:54;99567.50;;;7.97;100.00
61573;BME280;47465;43.094;12.434;2022-12-29T02:02:22;99577.22;;;7.96;100.00
61573;BME280;47465;43.094;12.434;2022-12-29T02:04:49;99578.97;;;7.97;100.00
61573;BME280;47465;43.094;12.434;2022-12-29T02:07:18;99569.25;;;8.06;100.00
61573;BME280;47465;43.094;12.434;2022-12-29T02:09:46;99572.69;;;8.23;100.00
61573;BME280;47465;43.094;12.434;2022-12-29T02:12:13;99562.94;;;8.30;100.00
61573;BME280;47465;43.094;12.434;2022-12-29T02:14:39;99532.97;;;8.18;100.00
61573;BME280;47465;43.094;12.434;2022-12-29T02:17:12;99566.41;;;8.47;100.00
61573;BME280;47465;43.094;12.434;2022-12-29T02:22:59;99569.00;;;8.61;100.00
61573;BME280;47465;43.094;12.434;2022-12-29T02:25:56;99560.94;;;8.76;100.00
61573;BME280;47465;43.094;12.434;2022-12-29T02:29:04;99579.44;;;8.87;100.00
61573;BME280;47465;43.094;12.434;2022-12-29T02:31:39;99564.34;;;8.91;100.00
61573;BME280;47465;43.094;12.434;2022-12-29T02:34:16;99566.97;;;8.98;100.00
61573;BME280;47465;43.094;12.434;2022-12-29T02:36:47;99576.63;;;9.04;100.00
61573;BME280;47465;43.094;12.434;2022-12-29T02:39:23;99547.53;;;8.96;100.00
61573;BME280;47465;43.094;12.434;2022-12-29T02:41:58;99556.34;;;8.98;100.00
61573;BME280;47465;43.094;12.434;2022-12-29T02:44:34;99548.41;;;8.97;100.00
61573;BME280;47465;43.094;12.434;2022-12-29T02:47:09;99532.53;;;8.91;100.00
61573;BME280;47465;43.094;12.434;2022-12-29T02:49:45;99547.53;;;8.93;100.00
61573;BME280;47465;43.094;12.434;2022-12-29T02:52:16;99547.53;;;8.96;100.00
61573;BME280;47465;43.094;12.434;2022-12-29T02:54:44;99529.91;;;8.86;100.00
61573;BME280;47465;43.094;12.434;2022-12-29T02:57:14;99536.09;;;8.87;100.00
61573;BME280;47465;43.094;12.434;2022-12-29T02:59:41;99510.53;;;8.81;100.00
61573;BME280;47465;43.094;12.434;2022-12-29T03:02:22;99530.81;;;8.85;100.00
61573;BME280;47465;43.094;12.434;2022-12-29T03:05:05;99517.59;;;8.80;100.00
61573;BME280;47465;43.094;12.434;2022-12-29T03:07:40;99535.22;;;8.84;100.00
61573;BME280;47465;43.094;12.434;2022-12-29T03:10:17;99526.47;;;8.73;100.00
61573;BME280;47465;43.094;12.434;2022-12-29T03:12:50;99527.38;;;8.72;100.00
61573;BME280;47465;43.094;12.434;2022-12-29T03:16:01;99508.91;;;8.61;100.00
61573;BME280;47465;43.094;12.434;2022-12-29T03:18:41;99528.28;;;8.67;100.00
61573;BME280;47465;43.094;12.434;2022-12-29T03:21:16;99533.59;;;8.65;100.00
61573;BME280;47465;43.094;12.434;2022-12-29T03:23:46;99531.78;;;8.73;100.00
61573;BME280;47465;43.094;12.434;2022-12-29T03:26:15;99534.38;;;8.79;100.00
61573;BME280;47465;43.094;12.434;2022-12-29T03:28:47;99511.50;;;8.63;100.00
61573;BME280;47465;43.094;12.434;2022-12-29T03:31:18;99497.47;;;8.52;100.00
61573;BME280;47465;43.094;12.434;2022-12-29T03:33:44;99536.16;;;8.77;100.00
61573;BME280;47465;43.094;12.434;2022-12-29T03:36:20;99523.88;;;8.69;100.00
61573;BME280;47465;43.094;12.434;2022-12-29T03:38:55;99521.22;;;8.69;100.00
61573;BME280;47465;43.094;12.434;2022-12-29T03:41:26;99521.22;;;8.69;100.00
61573;BME280;47465;43.094;12.434;2022-12-29T03:43:53;99526.47;;;8.76;100.00
61573;BME280;47465;43.094;12.434;2022-12-29T03:46:20;99495.72;;;8.52;100.00
61573;BME280;47465;43.094;12.434;2022-12-29T03:48:46;99516.84;;;8.60;100.00
61573;BME280;47465;43.094;12.434;2022-12-29T03:51:12;99527.44;;;8.63;100.00
61573;BME280;47465;43.094;12.434;2022-12-29T03:53:37;99498.41;;;8.40;100.00
61573;BME280;47465;43.094;12.434;2022-12-29T03:56:03;99523.09;;;8.51;100.00
61573;BME280;47465;43.094;12.434;2022-12-29T03:58:29;99517.84;;;8.45;100.00
61573;BME280;47465;43.094;12.434;2022-12-29T04:00:55;99520.47;;;8.43;100.00
61573;BME280;47465;43.094;12.434;2022-12-29T04:03:23;99506.41;;;8.32;100.00
61573;BME280;47465;43.094;12.434;2022-12-29T04:05:49;99531.09;;;8.43;100.00
61573;BME280;47465;43.094;12.434;2022-12-29T04:08:15;99522.25;;;8.38;100.00
61573;BME280;47465;43.094;12.434;2022-12-29T04:10:41;99505.56;;;8.26;100.00
61573;BME280;47465;43.094;12.434;2022-12-29T04:13:06;99496.75;;;8.20;100.00
61573;BME280;47465;43.094;12.434;2022-12-29T04:15:32;99512.56;;;8.36;100.00
61573;BME280;47465;43.094;12.434;2022-12-29T04:17:58;99516.13;;;8.30;100.00
61573;BME280;47465;43.094;12.434;2022-12-29T04:20:25;99525.81;;;8.40;100.00
61573;BME280;47465;43.094;12.434;2022-12-29T04:23:26;99529.34;;;8.44;100.00
61573;BME280;47465;43.094;12.434;2022-12-29T04:25:52;99522.22;;;8.49;100.00
61573;BME280;47465;43.094;12.434;2022-12-29T04:28:18;99529.25;;;8.61;100.00
61573;BME280;47465;43.094;12.434;2022-12-29T04:30:44;99525.72;;;8.59;100.00
61573;BME280;47465;43.094;12.434;2022-12-29T04:33:10;99505.38;;;8.56;100.00
61573;BME280;47465;43.094;12.434;2022-12-29T04:35:36;99508.00;;;8.64;100.00
61573;BME280;47465;43.094;12.434;2022-12-29T04:38:02;99515.00;;;8.73;100.00
61573;BME280;47465;43.094;12.434;2022-12-29T04:40:30;99515.81;;;8.81;100.00
61573;BME280;47465;43.094;12.434;2022-12-29T04:42:56;99536.81;;;9.05;100.00
61573;BME280;47465;43.094;12.434;2022-12-29T04:45:22;99533.31;;;9.07;100.00
61573;BME280;47465;43.094;12.434;2022-12-29T04:47:50;99538.56;;;9.11;100.00
61573;BME280;47465;43.094;12.434;2022-12-29T04:50:16;99517.47;;;8.96;100.00
61573;BME280;47465;43.094;12.434;2022-12-29T04:52:41;99542.13;;;9.04;100.00
61573;BME280;47465;43.094;12.434;2022-12-29T04:55:08;99518.47;;;8.81;100.00
61573;BME280;47465;43.094;12.434;2022-12-29T04:57:35;99550.22;;;8.89;100.00
61573;BME280;47465;43.094;12.434;2022-12-29T05:00:01;99536.16;;;8.77;100.00
61573;BME280;47465;43.094;12.434;2022-12-29T05:02:28;99537.94;;;8.78;100.00
61573;BME280;47465;43.094;12.434;2022-12-29T05:04:54;99522.94;;;8.71;100.00
61573;BME280;47465;43.094;12.434;2022-12-29T05:07:20;99552.88;;;8.89;100.00
61573;BME280;47465;43.094;12.434;2022-12-29T05:09:45;99532.66;;;8.78;100.00
61573;BME280;47465;43.094;12.434;2022-12-29T05:12:11;99547.56;;;8.90;100.00
61573;BME280;47465;43.094;12.434;2022-12-29T05:14:39;99547.56;;;8.89;100.00
61573;BME280;47465;43.094;12.434;2022-12-29T05:17:05;99524.66;;;8.80;100.00
61573;BME280;47465;43.094;12.434;2022-12-29T05:19:31;99534.34;;;8.87;100.00
61573;BME280;47465;43.094;12.434;2022-12-29T05:21:57;99546.66;;;8.96;100.00
61573;BME280;47465;43.094;12.434;2022-12-29T05:24:23;99529.88;;;8.92;100.00
61573;BME280;47465;43.094;12.434;2022-12-29T05:26:48;99552.78;;;8.99;100.00
61573;BME280;47465;43.094;12.434;2022-12-29T05:29:14;99520.22;;;8.85;100.00
61573;BME280;47465;43.094;12.434;2022-12-29T05:31:42;99531.63;;;8.95;100.00
61573;BME280;47465;43.094;12.434;2022-12-29T05:34:09;99521.97;;;8.88;100.00
61573;BME280;47465;43.094;12.434;2022-12-29T05:36:38;99529.84;;;8.95;100.00
61573;BME280;47465;43.094;12.434;2022-12-29T05:39:06;99548.41;;;8.97;100.00
61573;BME280;47465;43.094;12.434;2022-12-29T05:41:33;99547.53;;;8.95;100.00
61573;BME280;47465;43.094;12.434;2022-12-29T05:43:59;99549.34;;;8.90;100.00
61573;BME280;47465;43.094;12.434;2022-12-29T05:46:25;99562.53;;;9.00;100.00
61573;BME280;47465;43.094;12.434;2022-12-29T05:48:53;99565.19;;;8.99;100.00
61573;BME280;47465;43.094;12.434;2022-12-29T05:51:19;99547.63;;;8.82;100.00
61573;BME280;47465;43.094;12.434;2022-12-29T05:53:44;99558.25;;;8.81;100.00
61573;BME280;47465;43.094;12.434;2022-12-29T05:56:10;99574.16;;;8.81;100.00
61573;BME280;47465;43.094;12.434;2022-12-29T05:58:36;99574.22;;;8.73;100.00
61573;BME280;47465;43.094;12.434;2022-12-29T06:01:02;99568.06;;;8.68;100.00
61573;BME280;47465;43.094;12.434;2022-12-29T06:03:28;99574.34;;;8.53;100.00
61573;BME280;47465;43.094;12.434;2022-12-29T06:05:55;99542.66;;;8.29;100.00
61573;BME280;47465;43.094;12.434;2022-12-29T06:08:21;99555.06;;;8.20;100.00
61573;BME280;47465;43.094;12.434;2022-12-29T06:10:47;99584.16;;;8.27;100.00
61573;BME280;47465;43.094;12.434;2022-12-29T06:13:12;99569.19;;;8.15;100.00
61573;BME280;47465;43.094;12.434;2022-12-29T06:15:38;99579.81;;;8.13;100.00
61573;BME280;47465;43.094;12.434;2022-12-29T06:18:04;99582.47;;;8.09;100.00
61573;BME280;47465;43.094;12.434;2022-12-29T06:20:30;99567.50;;;7.97;100.00
61573;BME280;47465;43.094;12.434;2022-12-29T06:22:57;99558.69;;;7.89;100.00
61573;BME280;47465;43.094;12.434;2022-12-29T06:25:23;99571.94;;;7.96;100.00
61573;BME280;47465;43.094;12.434;2022-12-29T06:27:49;99568.41;;;7.91;100.00
61573;BME280;47465;43.094;12.434;2022-12-29T06:30:15;99574.56;;;7.98;100.00
61573;BME280;47465;43.094;12.434;2022-12-29T06:32:42;99571.06;;;7.91;100.00
61573;BME280;47465;43.094;12.434;2022-12-29T06:35:09;99575.44;;;7.95;100.00
61573;BME280;47465;43.094;12.434;2022-12-29T06:37:35;99590.47;;;7.95;100.00
61573;BME280;47465;43.094;12.434;2022-12-29T06:40:02;99567.56;;;7.83;100.00
61573;BME280;47465;43.094;12.434;2022-12-29T06:42:28;99595.75;;;7.93;100.00
61573;BME280;47465;43.094;12.434;2022-12-29T06:44:54;99574.63;;;7.79;100.00
61573;BME280;47465;43.094;12.434;2022-12-29T06:47:23;99582.56;;;7.81;100.00
61573;BME280;47465;43.094;12.434;2022-12-29T06:49:48;99587.00;;;7.85;100.00
61573;BME280;47465;43.094;12.434;2022-12-29T06:52:14;99589.56;;;7.97;100.00
61573;BME280;47465;43.094;12.434;2022-12-29T06:54:40;99585.16;;;7.95;100.00
61573;BME280;47465;43.094;12.434;2022-12-29T06:57:07;99582.50;;;8.06;100.00
61573;BME280;47465;43.094;12.434;2022-12-29T06:59:33;99586.78;;;8.34;100.00
61573;BME280;47465;43.094;12.434;2022-12-29T07:01:59;99597.31;;;8.50;100.00
61573;BME280;47465;43.094;12.434;2022-12-29T07:04:27;99587.59;;;8.55;100.00
61573;BME280;47465;43.094;12.434;2022-12-29T07:06:53;99580.44;;;8.68;100.00
61573;BME280;47465;43.094;12.434;2022-12-29T07:09:19;99576.84;;;8.75;100.00
61573;BME280;47465;43.094;12.434;2022-12-29T07:11:45;99578.53;;;8.88;100.00
61573;BME280;47465;43.094;12.434;2022-12-29T07:14:12;99591.66;;;9.07;100.00
61573;BME280;47465;43.094;12.434;2022-12-29T07:16:38;99588.97;;;9.11;100.00
61573;BME280;47465;43.094;12.434;2022-12-29T07:19:04;99566.97;;;8.98;100.00
61573;BME280;47465;43.094;12.434;2022-12-29T07:21:30;99587.25;;;9.04;100.00
61573;BME280;47465;43.094;12.434;2022-12-29T07:23:56;99565.22;;;8.91;100.00
61573;BME280;47465;43.094;12.434;2022-12-29T07:26:22;99582.88;;;8.98;100.00
61573;BME280;47465;43.094;12.434;2022-12-29T07:28:48;99579.28;;;9.04;100.00
61573;BME280;47465;43.094;12.434;2022-12-29T07:31:17;99578.41;;;9.02;100.00
61573;BME280;47465;43.094;12.434;2022-12-29T07:33:46;99585.50;;;9.04;100.00
61573;BME280;47465;43.094;12.434;2022-12-29T07:36:12;99573.19;;;8.94;100.00
61573;BME280;47465;43.094;12.434;2022-12-29T07:38:39;99590.81;;;9.00;100.00
61573;BME280;47465;43.094;12.434;2022-12-29T07:41:05;99592.63;;;8.98;100.00
61573;BME280;47465;43.094;12.434;2022-12-29T07:43:31;99597.00;;;9.00;100.00
61573;BME280;47465;43.094;12.434;2022-12-29T07:45:57;99573.22;;;8.90;100.00
61573;BME280;47465;43.094;12.434;2022-12-29T07:48:25;99594.28;;;9.08;100.00
61573;BME280;47465;43.094;12.434;2022-12-29T07:50:52;99580.19;;;9.04;100.00
61573;BME280;47465;43.094;12.434;2022-12-29T07:53:18;99590.72;;;9.12;100.00
61573;BME280;47465;43.094;12.434;2022-12-29T07:55:43;99583.63;;;9.17;100.00
61573;BME280;47465;43.094;12.434;2022-12-29T07:58:09;99585.28;;;9.28;100.00
61573;BME280;47465;43.094;12.434;2022-12-29T08:00:35;99617.81;;;9.53;100.00
61573;BME280;47465;43.094;12.434;2022-12-29T08:03:01;99587.66;;;9.58;100.00
61573;BME280;47465;43.094;12.434;2022-12-29T08:05:29;99600.72;;;9.80;100.00
61573;BME280;47465;43.094;12.434;2022-12-29T08:07:57;99590.00;;;9.89;100.00
61573;BME280;47465;43.094;12.434;2022-12-29T08:10:23;99592.44;;;10.09;100.00
61573;BME280;47465;43.094;12.434;2022-12-29T08:12:49;99587.84;;;10.19;100.00
61573;BME280;47465;43.094;12.434;2022-12-29T08:15:15;99585.00;;;10.39;100.00
61573;BME280;47465;43.094;12.434;2022-12-29T08:17:41;99610.28;;;10.69;100.00
61573;BME280;47465;43.094;12.434;2022-12-29T08:20:08;99593.13;;;10.90;100.00
61573;BME280;47465;43.094;12.434;2022-12-29T08:22:36;99603.69;;;10.96;100.00
61573;BME280;47465;43.094;12.434;2022-12-29T08:25:02;99604.38;;;11.07;100.00
61573;BME280;47465;43.094;12.434;2022-12-29T08:27:28;99582.81;;;11.26;100.00
61573;BME280;47465;43.094;12.434;2022-12-29T08:29:54;99604.59;;;11.49;100.00
61573;BME280;47465;43.094;12.434;2022-12-29T08:32:19;99608.00;;;11.58;98.93
61573;BME280;47465;43.094;12.434;2022-12-29T08:34:45;99599.31;;;11.46;99.57
61573;BME280;47465;43.094;12.434;2022-12-29T08:37:11;99578.03;;;11.45;99.09
61573;BME280;47465;43.094;12.434;2022-12-29T08:39:39;99614.69;;;11.80;98.37
61573;BME280;47465;43.094;12.434;2022-12-29T08:42:05;99591.50;;;11.85;95.30
61573;BME280;47465;43.094;12.434;2022-12-29T08:44:32;99598.59;;;11.88;96.77
61573;BME280;47465;43.094;12.434;2022-12-29T08:46:57;99603.75;;;11.97;96.22
61573;BME280;47465;43.094;12.434;2022-12-29T08:49:23;99597.44;;;12.01;96.08
61573;BME280;47465;43.094;12.434;2022-12-29T08:51:49;99607.78;;;12.18;94.51
61573;BME280;47465;43.094;12.434;2022-12-29T08:54:15;99593.66;;;12.13;95.29
61573;BME280;47465;43.094;12.434;2022-12-29T08:56:42;99591.56;;;11.82;94.94
61573;BME280;47465;43.094;12.434;2022-12-29T08:59:08;99603.38;;;11.67;95.51
61573;BME280;47465;43.094;12.434;2022-12-29T09:01:34;99596.66;;;11.45;97.91
61573;BME280;47465;43.094;12.434;2022-12-29T09:04:02;99600.53;;;11.27;97.95
61573;BME280;47465;43.094;12.434;2022-12-29T09:06:28;99595.19;;;11.27;98.32
61573;BME280;47465;43.094;12.434;2022-12-29T09:08:54;99614.63;;;11.34;99.20
61573;BME280;47465;43.094;12.434;2022-12-29T09:11:23;99605.66;;;11.38;99.32
61573;BME280;47465;43.094;12.434;2022-12-29T09:13:51;99614.34;;;11.50;98.47
61573;BME280;47465;43.094;12.434;2022-12-29T09:16:18;99615.22;;;11.51;98.32
61573;BME280;47465;43.094;12.434;2022-12-29T09:18:45;99616.13;;;11.50;98.78
61573;BME280;47465;43.094;12.434;2022-12-29T09:21:12;99598.50;;;11.43;98.52
61573;BME280;47465;43.094;12.434;2022-12-29T09:23:39;99620.16;;;11.72;97.83
61573;BME280;47465;43.094;12.434;2022-12-29T09:26:05;99623.44;;;11.37;98.32
61573;BME280;47465;43.094;12.434;2022-12-29T09:28:31;99592.97;;;11.01;100.00
61573;BME280;47465;43.094;12.434;2022-12-29T09:30:58;99603.19;;;11.27;100.00
61573;BME280;47465;43.094;12.434;2022-12-29T09:33:25;99595.03;;;11.38;99.49
61573;BME280;47465;43.094;12.434;2022-12-29T09:35:53;99597.59;;;11.42;99.06
61573;BME280;47465;43.094;12.434;2022-12-29T09:38:19;99621.38;;;11.53;99.42
61573;BME280;47465;43.094;12.434;2022-12-29T09:40:49;99596.94;;;11.29;99.59
61573;BME280;47465;43.094;12.434;2022-12-29T09:43:36;99608.31;;;11.41;99.70
61573;BME280;47465;43.094;12.434;2022-12-29T09:46:16;99617.09;;;11.44;99.64
61573;BME280;47465;43.094;12.434;2022-12-29T09:48:48;99619.56;;;11.55;99.39
61573;BME280;47465;43.094;12.434;2022-12-29T09:51:21;99597.47;;;11.51;99.56
61573;BME280;47465;43.094;12.434;2022-12-29T09:53:52;99626.50;;;11.65;99.37
61573;BME280;47465;43.094;12.434;2022-12-29T09:56:22;99615.00;;;11.63;99.75
61573;BME280;47465;43.094;12.434;2022-12-29T09:58:51;99609.56;;;11.71;99.70
61573;BME280;47465;43.094;12.434;2022-12-29T10:01:28;99583.56;;;11.82;98.46
61573;BME280;47465;43.094;12.434;2022-12-29T10:03:56;99581.41;;;12.03;97.47
61573;BME280;47465;43.094;12.434;2022-12-29T10:06:24;99592.41;;;12.29;96.78
61573;BME280;47465;43.094;12.434;2022-12-29T10:08:57;99578.91;;;12.39;96.30
61573;BME280;47465;43.094;12.434;2022-12-29T10:11:35;99595.31;;;12.61;95.45
61573;BME280;47465;43.094;12.434;2022-12-29T10:14:19;99576.81;;;12.53;94.64
61573;BME280;47465;43.094;12.434;2022-12-29T10:16:54;99568.66;;;12.59;95.07
61573;BME280;47465;43.094;12.434;2022-12-29T10:19:37;99575.47;;;12.72;94.55
61573;BME280;47465;43.094;12.434;2022-12-29T10:22:16;99582.03;;;12.58;94.63
61573;BME280;47465;43.094;12.434;2022-12-29T10:24:50;99565.44;;;12.45;95.28
61573;BME280;47465;43.094;12.434;2022-12-29T10:27:19;99563.69;;;12.44;94.41
61573;BME280;47465;43.094;12.434;2022-12-29T10:29:49;99557.53;;;12.40;95.23
61573;BME280;47465;43.094;12.434;2022-12-29T10:32:25;99555.56;;;12.48;94.84
61573;BME280;47465;43.094;12.434;2022-12-29T10:34:55;99555.31;;;12.61;94.33
61573;BME280;47465;43.094;12.434;2022-12-29T10:37:30;99552.53;;;12.65;95.25
61573;BME280;47465;43.094;12.434;2022-12-29T10:39:58;99550.91;;;12.97;94.01
61573;BME280;47465;43.094;12.434;2022-12-29T10:42:28;99554.16;;;13.10;92.37
61573;BME280;47465;43.094;12.434;2022-12-29T10:44:55;99533.66;;;13.10;93.69
61573;BME280;47465;43.094;12.434;2022-12-29T10:47:25;99529.75;;;13.24;92.95
61573;BME280;47465;43.094;12.434;2022-12-29T10:49:52;99525.88;;;13.37;92.04
61573;BME280;47465;43.094;12.434;2022-12-29T10:52:20;99533.28;;;13.60;91.39
61573;BME280;47465;43.094;12.434;2022-12-29T10:54:51;99526.94;;;13.64;90.09
61573;BME280;47465;43.094;12.434;2022-12-29T10:57:26;99542.28;;;13.89;89.53
61573;BME280;47465;43.094;12.434;2022-12-29T10:59:55;99528.66;;;13.98;88.80
61573;BME280;47465;43.094;12.434;2022-12-29T11:05:25;99515.56;;;13.89;88.37
61573;BME280;47465;43.094;12.434;2022-12-29T11:07:58;99507.69;;;13.83;88.64
61573;BME280;47465;43.094;12.434;2022-12-29T11:10:34;99513.19;;;13.78;89.07
61573;BME280;47465;43.094;12.434;2022-12-29T11:13:04;99505.25;;;13.75;86.55
61573;BME280;47465;43.094;12.434;2022-12-29T11:15:40;99495.19;;;13.83;87.21
61573;BME280;47465;43.094;12.434;2022-12-29T11:18:18;99500.69;;;14.10;84.89
61573;BME280;47465;43.094;12.434;2022-12-29T11:20:45;99516.28;;;14.25;85.46
61573;BME280;47465;43.094;12.434;2022-12-29T11:23:23;99493.78;;;14.31;84.61
61573;BME280;47465;43.094;12.434;2022-12-29T11:26:06;99514.69;;;14.48;83.72
61573;BME280;47465;43.094;12.434;2022-12-29T11:28:34;99518.91;;;14.56;82.33
61573;BME280;47465;43.094;12.434;2022-12-29T11:31:00;99505.13;;;14.39;82.82
61573;BME280;47465;43.094;12.434;2022-12-29T11:33:28;99486.44;;;14.37;83.36
61573;BME280;47465;43.094;12.434;2022-12-29T11:35:58;99489.94;;;14.39;84.00
61573;BME280;47465;43.094;12.434;2022-12-29T11:38:34;99482.06;;;14.35;83.88
61573;BME280;47465;43.094;12.434;2022-12-29T11:41:01;99498.97;;;14.37;83.64
61573;BME280;47465;43.094;12.434;2022-12-29T11:43:31;99477.34;;;14.15;84.75
61573;BME280;47465;43.094;12.434;2022-12-29T11:45:59;99483.56;;;14.15;85.86
61573;BME280;47465;43.094;12.434;2022-12-29T11:48:29;99485.63;;;14.35;84.93
61573;BME280;47465;43.094;12.434;2022-12-29T11:50:59;99492.56;;;14.43;84.72
61573;BME280;47465;43.094;12.434;2022-12-29T11:53:27;99455.84;;;14.18;84.49
61573;BME280;47465;43.094;12.434;2022-12-29T11:55:56;99463.97;;;14.15;85.56
61573;BME280;47465;43.094;12.434;2022-12-29T11:58:29;99451.91;;;14.02;86.06
61573;BME280;47465;43.094;12.434;2022-12-29T12:00:55;99482.28;;;13.99;86.23
61573;BME280;47465;43.094;12.434;2022-12-29T12:03:24;99480.34;;;14.04;86.62
61573;BME280;47465;43.094;12.434;2022-12-29T12:05:56;99449.94;;;14.07;85.68
61573;BME280;47465;43.094;12.434;2022-12-29T12:08:33;99466.16;;;14.30;83.85
61573;BME280;47465;43.094;12.434;2022-12-29T12:11:07;99455.25;;;14.08;83.81
61573;BME280;47465;43.094;12.434;2022-12-29T12:13:39;99457.47;;;13.94;84.84
61573;BME280;47465;43.094;12.434;2022-12-29T12:16:12;99463.19;;;13.82;85.59
61573;BME280;47465;43.094;12.434;2022-12-29T12:18:42;99467.00;;;13.73;86.86
61573;BME280;47465;43.094;12.434;2022-12-29T12:21:15;99451.72;;;13.47;87.43
61573;BME280;47465;43.094;12.434;2022-12-29T12:24:05;99441.34;;;13.34;87.98
61573;BME280;47465;43.094;12.434;2022-12-29T12:26:39;99462.56;;;13.41;89.92
61573;BME280;47465;43.094;12.434;2022-12-29T12:29:11;99457.91;;;13.47;87.83
61573;BME280;47465;43.094;12.434;2022-12-29T12:31:46;99429.78;;;13.65;86.74
61573;BME280;47465;43.094;12.434;2022-12-29T12:34:16;99433.69;;;13.85;85.61
61573;BME280;47465;43.094;12.434;2022-12-29T12:37:07;99449.50;;;13.92;83.95
61573;BME280;47465;43.094;12.434;2022-12-29T12:39:43;99422.41;;;13.75;84.08
61573;BME280;47465;43.094;12.434;2022-12-29T12:42:25;99426.59;;;13.84;85.49
61573;BME280;47465;43.094;12.434;2022-12-29T12:45:23;99409.72;;;13.82;85.92
61573;BME280;47465;43.094;12.434;2022-12-29T12:47:58;99406.28;;;13.76;85.54
61573;BME280;47465;43.094;12.434;2022-12-29T12:50:39;99415.94;;;13.82;85.57
61573;BME280;47465;43.094;12.434;2022-12-29T12:53:19;99391.25;;;13.72;85.75
61573;BME280;47465;43.094;12.434;2022-12-29T12:56:16;99393.56;;;13.85;85.66
61573;BME280;47465;43.094;12.434;2022-12-29T12:58:52;99404.97;;;13.91;84.87
61573;BME280;47465;43.094;12.434;2022-12-29T13:01:33;99414.06;;;13.86;86.38
61573;BME280;47465;43.094;12.434;2022-12-29T13:04:19;99404.44;;;13.79;86.65
61573;BME280;47465;43.094;12.434;2022-12-29T13:06:55;99405.38;;;13.77;86.47
61573;BME280;47465;43.094;12.434;2022-12-29T13:09:40;99402.03;;;13.71;86.35
61573;BME280;47465;43.094;12.434;2022-12-29T13:12:20;99391.69;;;13.59;86.78
61573;BME280;47465;43.094;12.434;2022-12-29T13:15:02;99395.00;;;13.35;87.17